createdAt,value
2022-10-12T00:03:54.164Z,23.25
2022-10-12T00:07:57.167Z,23.33
2022-10-12T00:12:34.786Z,24.17
2022-10-12T00:16:39.488Z,23.15
2022-10-12T00:20:42.503Z,24.15
2022-10-12T00:24:45.488Z,23.25
2022-10-12T00:29:07.163Z,22.77
2022-10-12T00:33:11.606Z,21.80
2022-10-12T00:37:14.626Z,22.65
2022-10-12T00:41:51.906Z,21.60
2022-10-12T00:45:55.129Z,22.38
2022-10-12T00:50:03.956Z,22.25
2022-10-12T00:54:10.567Z,23.95
2022-10-12T00:58:16.562Z,23.42
2022-10-12T01:02:21.074Z,23.88
2022-10-12T01:06:56.850Z,22.98
2022-10-12T01:10:59.938Z,23.60
2022-10-12T01:15:03.745Z,21.73
2022-10-12T01:19:16.976Z,23.08
2022-10-12T01:23:45.239Z,22.67
2022-10-12T01:27:50.243Z,24.17
2022-10-12T01:32:00.308Z,23.58
2022-10-12T01:36:11.119Z,21.73
2022-10-12T01:40:17.565Z,22.92
2022-10-12T01:44:24.606Z,22.40
2022-10-12T01:49:01.135Z,21.40
2022-10-12T01:53:18.383Z,22.38
2022-10-12T01:57:32.637Z,20.50
2022-10-12T02:01:59.822Z,21.58
2022-10-12T02:06:07.227Z,24.80
2022-10-12T02:10:25.587Z,23.77
2022-10-12T02:14:55.215Z,24.08
2022-10-12T02:19:01.073Z,24.75
2022-10-12T02:23:04.983Z,25.48
2022-10-12T02:27:12.497Z,23.45
2022-10-12T02:31:26.145Z,24.35
2022-10-12T02:35:54.110Z,22.70
2022-10-12T02:40:04.224Z,25.17
2022-10-12T02:44:13.290Z,23.35
2022-10-12T02:48:21.747Z,23.85
2022-10-12T02:52:25.652Z,23.67
2022-10-12T02:56:28.649Z,23.08
2022-10-12T03:00:35.194Z,23.23
2022-10-12T03:05:09.027Z,22.75
2022-10-12T03:09:12.080Z,24.13
2022-10-12T03:13:48.602Z,23.48
2022-10-12T03:17:53.106Z,22.52
2022-10-12T03:21:56.115Z,21.38
2022-10-12T03:26:33.214Z,23.77
2022-10-12T03:30:36.342Z,20.63
2022-10-12T03:35:12.818Z,22.98
2022-10-12T03:39:17.532Z,21.17
2022-10-12T03:43:51.285Z,22.58
2022-10-12T03:47:54.289Z,23.02
2022-10-12T03:52:30.954Z,23.63
2022-10-12T03:57:09.297Z,21.65
2022-10-12T04:01:42.957Z,22.27
2022-10-12T04:05:46.055Z,20.75
2022-10-12T04:09:49.118Z,22.40
2022-10-12T04:13:53.542Z,24.27
2022-10-12T04:18:27.502Z,24.20
2022-10-12T04:23:04.125Z,22.73
2022-10-12T04:27:07.413Z,21.70
2022-10-12T04:31:11.855Z,22.63
2022-10-12T04:35:14.916Z,22.63
2022-10-12T04:39:51.463Z,22.42
2022-10-12T04:43:54.774Z,22.23
2022-10-12T04:48:29.956Z,24.35
2022-10-12T04:52:55.430Z,22.98
2022-10-12T04:56:58.429Z,24.33
2022-10-12T05:01:35.138Z,23.92
2022-10-12T05:05:39.699Z,23.38
2022-10-12T05:09:42.877Z,23.60
2022-10-12T05:13:45.932Z,23.35
2022-10-12T05:17:49.019Z,23.00
2022-10-12T05:22:26.427Z,22.60
2022-10-12T05:26:31.143Z,24.48
2022-10-12T05:30:34.557Z,23.52
2022-10-12T05:34:37.519Z,24.30
2022-10-12T05:38:40.513Z,24.02
2022-10-12T05:42:45.664Z,23.67
2022-10-12T05:47:19.273Z,24.48
2022-10-12T05:51:26.571Z,22.95
2022-10-12T05:56:00.036Z,22.70
2022-10-12T06:00:06.455Z,22.15
2022-10-12T06:04:09.555Z,23.70
2022-10-12T06:08:13.216Z,22.90
2022-10-12T06:12:49.918Z,21.98
2022-10-12T06:16:54.636Z,21.38
2022-10-12T06:21:28.364Z,23.10
2022-10-12T06:25:20.758Z,21.45
2022-10-12T06:29:25.025Z,21.52
2022-10-12T06:33:47.826Z,21.52
2022-10-12T06:38:22.032Z,21.00
2022-10-12T06:43:02.709Z,20.30
2022-10-12T06:47:06.235Z,20.40
2022-10-12T06:51:10.633Z,18.00
2022-10-12T06:55:44.849Z,20.40
2022-10-12T06:59:47.910Z,20.38
2022-10-12T07:03:50.926Z,25.05
2022-10-12T07:08:29.165Z,21.80
2022-10-12T07:12:32.266Z,19.65
2022-10-12T07:16:35.243Z,20.15
2022-10-12T07:21:11.917Z,19.67
2022-10-12T07:25:16.474Z,19.88
2022-10-12T07:29:19.472Z,17.92
2022-10-12T07:33:44.065Z,16.20
2022-10-12T07:37:49.930Z,18.13
2022-10-12T07:41:55.027Z,15.05
2022-10-12T07:46:28.849Z,16.52
2022-10-12T07:50:31.870Z,16.45
2022-10-12T07:55:11.465Z,16.33
2022-10-12T07:59:47.735Z,15.00
2022-10-12T08:03:51.002Z,14.70
2022-10-12T08:08:28.187Z,15.23
2022-10-12T08:13:05.287Z,14.30
2022-10-12T08:17:09.945Z,14.38
2022-10-12T08:21:43.819Z,14.43
2022-10-12T08:25:53.388Z,15.25
2022-10-12T08:30:26.956Z,16.75
2022-10-12T08:35:05.548Z,15.63
2022-10-12T08:39:08.857Z,16.23
2022-10-12T08:43:20.589Z,14.35
2022-10-12T08:47:51.560Z,15.48
2022-10-12T08:51:57.915Z,14.50
2022-10-12T08:56:01.586Z,15.10
2022-10-12T09:00:35.887Z,15.13
2022-10-12T09:05:08.966Z,15.25
2022-10-12T09:09:28.443Z,13.95
2022-10-12T09:13:43.694Z,14.43
2022-10-12T09:18:19.633Z,13.45
2022-10-12T09:22:46.608Z,13.65
2022-10-12T09:26:55.075Z,13.27
2022-10-12T09:31:08.628Z,12.88
2022-10-12T09:35:50.354Z,13.20
2022-10-12T09:39:53.927Z,12.45
2022-10-12T09:44:32.614Z,12.00
2022-10-12T09:48:35.588Z,11.45
2022-10-12T09:53:24.357Z,11.30
2022-10-12T09:57:31.588Z,11.27
2022-10-12T10:02:14.529Z,11.38
2022-10-12T10:06:43.790Z,10.70
2022-10-12T10:10:50.645Z,10.20
2022-10-12T10:15:29.188Z,10.00
2022-10-12T10:19:33.930Z,9.75
2022-10-12T10:24:09.526Z,10.00
2022-10-12T10:28:22.450Z,10.35
2022-10-12T10:32:29.029Z,10.73
2022-10-12T10:36:45.565Z,10.25
2022-10-12T10:41:18.141Z,9.93
2022-10-12T10:45:53.681Z,10.35
2022-10-12T10:49:59.438Z,10.63
2022-10-12T10:54:15.202Z,11.05
2022-10-12T10:58:38.799Z,10.23
2022-10-12T11:03:14.322Z,9.93
2022-10-12T11:07:48.401Z,9.68
2022-10-12T11:12:14.574Z,10.18
2022-10-12T11:16:30.598Z,9.55
2022-10-12T11:20:44.786Z,10.35
2022-10-12T11:25:14.322Z,11.07
2022-10-12T11:29:19.463Z,10.45
2022-10-12T11:33:26.480Z,10.18
2022-10-12T11:38:01.781Z,9.82
2022-10-12T11:42:21.264Z,9.13
2022-10-12T11:46:44.119Z,10.65
2022-10-12T11:50:49.719Z,8.45
2022-10-12T11:55:31.182Z,8.38
2022-10-12T12:00:06.568Z,8.57
2022-10-12T12:04:48.248Z,7.95
2022-10-12T12:08:58.347Z,8.82
2022-10-12T12:13:32.944Z,9.15
2022-10-12T12:18:12.357Z,8.93
2022-10-12T12:22:34.334Z,8.60
2022-10-12T12:26:55.780Z,7.82
2022-10-12T12:31:01.395Z,9.20
2022-10-12T12:35:05.102Z,8.45
2022-10-12T12:39:41.435Z,9.00
2022-10-12T12:44:30.031Z,8.88
2022-10-12T12:48:58.815Z,9.25
2022-10-12T12:53:32.199Z,7.32
2022-10-12T12:57:48.465Z,8.60
2022-10-12T13:02:20.465Z,8.02
2022-10-12T13:07:09.031Z,6.55
2022-10-12T13:11:45.823Z,5.95
2022-10-12T13:16:00.924Z,5.97
2022-10-12T13:20:27.870Z,6.78
2022-10-12T13:24:35.608Z,6.75
2022-10-12T13:29:08.784Z,6.63
2022-10-12T13:34:06.607Z,6.43
2022-10-12T13:38:21.823Z,6.78
2022-10-12T13:42:46.560Z,6.10
2022-10-12T13:47:24.767Z,6.68
2022-10-12T13:52:00.490Z,6.18
2022-10-12T13:56:33.740Z,7.13
2022-10-12T14:00:38.392Z,7.25
2022-10-12T14:05:18.096Z,7.15
2022-10-12T14:09:51.027Z,6.20
2022-10-12T14:14:31.323Z,5.40
2022-10-12T14:19:17.091Z,5.82
2022-10-12T14:23:43.358Z,6.00
2022-10-12T14:28:22.602Z,5.38
2022-10-12T14:32:52.330Z,6.85
2022-10-12T14:37:26.483Z,5.80
2022-10-12T14:42:03.590Z,5.28
2022-10-12T14:46:37.491Z,6.20
2022-10-12T14:51:18.260Z,6.28
2022-10-12T14:55:24.199Z,6.47
2022-10-12T14:59:28.745Z,5.68
2022-10-12T15:04:02.178Z,4.95
2022-10-12T15:08:09.001Z,5.88
2022-10-12T15:12:39.785Z,5.03
2022-10-12T15:17:16.832Z,4.70
2022-10-12T15:21:21.603Z,4.82
2022-10-12T15:25:27.550Z,5.28
2022-10-12T15:30:01.587Z,5.28
2022-10-12T15:34:59.536Z,5.70
2022-10-12T15:39:38.240Z,5.18
2022-10-12T15:43:51.881Z,4.95
2022-10-12T15:47:57.505Z,5.47
2022-10-12T15:52:31.292Z,6.20
2022-10-12T15:56:41.749Z,5.68
2022-10-12T16:01:13.396Z,5.95
2022-10-12T16:05:47.374Z,5.55
2022-10-12T16:09:50.458Z,6.10
2022-10-12T16:13:56.943Z,5.80
2022-10-12T16:18:27.873Z,5.35
2022-10-12T16:23:06.139Z,5.32
2022-10-12T16:27:40.472Z,5.30
2022-10-12T16:32:17.209Z,6.18
2022-10-12T16:36:55.706Z,6.38
2022-10-12T16:41:31.844Z,6.50
2022-10-12T16:46:04.744Z,6.15
2022-10-12T16:50:08.217Z,7.10
2022-10-12T16:54:46.870Z,7.75
2022-10-12T16:58:50.086Z,10.65
2022-10-12T17:03:27.675Z,8.73
2022-10-12T17:07:31.146Z,7.65
2022-10-12T17:11:37.416Z,8.25
2022-10-12T17:15:42.374Z,7.68
2022-10-12T17:20:16.186Z,9.35
2022-10-12T17:24:53.116Z,9.10
2022-10-12T17:29:32.466Z,10.52
2022-10-12T17:34:07.297Z,10.05
2022-10-12T17:38:41.218Z,11.43
2022-10-12T17:43:18.265Z,11.60
2022-10-12T17:47:56.924Z,12.50
2022-10-12T17:52:33.825Z,18.85
2022-10-12T17:57:10.751Z,45.42
2022-10-12T18:01:47.731Z,23.65
2022-10-12T18:06:26.140Z,15.85
2022-10-12T18:11:00.398Z,17.70
2022-10-12T18:15:42.134Z,20.80
2022-10-12T18:20:13.375Z,21.42
2022-10-12T18:24:51.550Z,17.80
2022-10-12T18:29:25.793Z,18.08
2022-10-12T18:34:02.604Z,18.70
2022-10-12T18:38:39.476Z,20.65
2022-10-12T18:42:44.013Z,22.13
2022-10-12T18:47:24.274Z,24.88
2022-10-12T18:51:58.349Z,27.05
2022-10-12T18:56:04.126Z,29.92
2022-10-12T19:00:11.109Z,30.73
2022-10-12T19:04:44.643Z,31.55
2022-10-12T19:09:21.437Z,29.40
2022-10-12T19:13:30.635Z,29.58
2022-10-12T19:18:08.995Z,32.03
2022-10-12T19:22:49.756Z,31.25
2022-10-12T19:26:52.835Z,30.15
2022-10-12T19:30:55.957Z,30.20
2022-10-12T19:35:36.854Z,30.80
2022-10-12T19:39:44.736Z,33.22
2022-10-12T19:44:15.420Z,34.33
2022-10-12T19:48:53.228Z,35.65
2022-10-12T19:53:28.693Z,34.28
2022-10-12T19:58:02.613Z,30.98
2022-10-12T20:02:41.373Z,31.60
2022-10-12T20:07:15.099Z,30.33
2022-10-12T20:11:53.526Z,26.27
2022-10-12T20:16:31.177Z,27.85
2022-10-12T20:21:01.683Z,27.50
2022-10-12T20:25:09.292Z,26.05
2022-10-12T20:29:42.638Z,28.75
2022-10-12T20:33:45.670Z,29.58
2022-10-12T20:37:48.788Z,30.48
2022-10-12T20:42:25.926Z,28.60
2022-10-12T20:46:31.587Z,28.75
2022-10-12T20:51:06.651Z,29.05
2022-10-12T20:55:10.992Z,29.10
2022-10-12T20:59:45.733Z,30.08
2022-10-12T21:03:50.311Z,29.10
2022-10-12T21:08:24.149Z,28.00
2022-10-12T21:12:27.526Z,32.13
2022-10-12T21:16:31.010Z,31.65
2022-10-12T21:21:04.452Z,30.70
2022-10-12T21:25:09.947Z,28.70
2022-10-12T21:29:13.615Z,28.90
2022-10-12T21:33:47.861Z,32.10
2022-10-12T21:37:50.926Z,30.45
2022-10-12T21:41:55.394Z,31.83
2022-10-12T21:46:03.912Z,35.42
2022-10-12T21:50:09.529Z,38.80
2022-10-12T21:54:12.686Z,31.65
2022-10-12T21:58:17.154Z,34.80
2022-10-12T22:02:20.767Z,29.52
2022-10-12T22:06:25.336Z,31.25
2022-10-12T22:10:28.411Z,32.55
2022-10-12T22:14:32.894Z,28.95
2022-10-12T22:19:06.438Z,34.25
2022-10-12T22:23:09.459Z,30.73
2022-10-12T22:27:12.486Z,68.95
2022-10-12T22:31:19.158Z,39.53
2022-10-12T22:35:50.230Z,63.13
2022-10-12T22:39:53.414Z,53.25
2022-10-12T22:43:57.402Z,65.90
2022-10-12T22:48:33.122Z,68.60
2022-10-12T22:52:36.236Z,65.03
2022-10-12T22:56:39.556Z,60.75
2022-10-12T23:00:43.302Z,51.97
2022-10-12T23:04:48.764Z,34.38
2022-10-12T23:09:22.074Z,40.00
2022-10-12T23:13:25.136Z,33.08
2022-10-12T23:17:28.177Z,37.13
2022-10-12T23:22:06.252Z,46.40
2022-10-12T23:26:11.186Z,34.27
2022-10-12T23:30:14.590Z,64.10
2022-10-12T23:34:51.342Z,39.25
2022-10-12T23:38:56.045Z,38.53
2022-10-12T23:43:30.440Z,71.63
2022-10-12T23:47:33.696Z,76.07
2022-10-12T23:51:36.898Z,72.17
2022-10-12T23:56:12.497Z,56.50
